• Join FlightAware (Why Join?)
  • Login
  • US Flag 
08:05AM EDT


 

Airport Tracker/Info


-or-


 

Live Flight TrackerFlight Track Log ✈ N465TP ✈ 27-Oct-2013 ✈ KUDD - KCOD

Flight Track Log - Related Links

Times and Time Zones

All times are in EDT time to prevent confusion due to time zone crossing. See the N465TP flight status page for this flight to view local times or setup timezone preferences in your user account.

Time Position Orientation Groundspeed Altitude Reporting Facility
EDT Latitude Longitude Course Direction KTS MPH feet Rate Location/Type
03:32PM 33.7500 -116.2500 40° Northeast 143 165 2,800  Level Southern California TRACON
03:33PM 33.7833 -116.2167 40° Northeast 134 154 4,500 1,560 Climbing Southern California TRACON
03:34PM 33.8000 -116.1833 59° Northeast 147 169 6,000 1,260 Climbing Southern California TRACON
03:34PM 33.8258 -116.1581 39° Northeast 153 176 6,900 1,380 Climbing Los Angeles Center
03:35PM 33.8597 -116.1108 49° Northeast 154 177 8,700 1,440 Climbing Los Angeles Center
03:37PM 33.8906 -116.0700 48° Northeast 159 183 10,000 1,200 Climbing Los Angeles Center
03:38PM 33.9236 -116.0261 48° Northeast 167 192 11,300 1,260 Climbing Los Angeles Center
03:39PM 33.9583 -115.9767 50° Northeast 182 209 12,700 1,200 Climbing Los Angeles Center
03:40PM 33.9947 -115.9292 47° Northeast 190 219 13,900 1,080 Climbing Los Angeles Center
03:41PM 34.0325 -115.8794 47° Northeast 194 223 15,200 1,380 Climbing Los Angeles Center
03:42PM 34.0878 -115.8028 49° Northeast 213 245 17,100 1,440 Climbing Los Angeles Center
03:43PM 34.1281 -115.7481 48° Northeast 216 249 18,300 1,200 Climbing Los Angeles Center
03:44PM 34.1742 -115.6972 42° Northeast 223 257 19,600 1,140 Climbing Los Angeles Center
03:45PM 34.2225 -115.6450 42° Northeast 230 265 20,700 1,080 Climbing Los Angeles Center
03:46PM 34.2711 -115.5872 44° Northeast 240 276 21,900 1,200 Climbing Los Angeles Center
03:47PM 34.3333 -115.5206 41° Northeast 247 284 23,200 1,200 Climbing Los Angeles Center
03:48PM 34.3969 -115.4942 19° North 242 278 24,400 1,080 Climbing Los Angeles Center
03:49PM 34.4603 -115.4675 19° North 242 278 25,500 960 Climbing Los Angeles Center
03:50PM 34.5269 -115.4394 19° North 250 288 26,500 660 Climbing Los Angeles Center
03:51PM 34.5950 -115.4094 20° North 257 296 26,900 240 Climbing Los Angeles Center
03:52PM 34.6764 -115.3747 19° North 285 328 27,000  Climbing Los Angeles Center
03:53PM 34.7564 -115.3403 19° North 300 345 27,000  Level Los Angeles Center
03:54PM 34.8525 -115.2961 21° North 307 353 27,000  Level Los Angeles Center
03:55PM 34.9258 -115.2647 19° North 304 350 27,000  Level Los Angeles Center
03:56PM 35.0092 -115.2275 20° North 298 343 27,000  Level Los Angeles Center
03:57PM 35.0875 -115.1931 20° North 300 345 27,000  Level Los Angeles Center
03:58PM 35.1667 -115.1564 21° North 303 349 27,000  Level Los Angeles Center
04:00PM 35.2442 -115.1094 26° Northeast 308 354 27,000  Level Los Angeles Center
04:01PM 35.3364 -115.0575 25° Northeast 306 352 27,000  Level Los Angeles Center
04:02PM 35.4139 -115.0133 25° Northeast 306 352 27,000  Level Los Angeles Center
04:03PM 35.4903 -114.9689 25° Northeast 305 351 27,000  Level Los Angeles Center
04:04PM 35.5681 -114.9247 25° Northeast 307 353 27,000  Level Los Angeles Center
04:05PM 35.6444 -114.8819 24° Northeast 303 349 27,000  Level Los Angeles Center
04:06PM 35.7225 -114.8378 25° Northeast 308 354 27,000  Level Los Angeles Center
04:07PM 35.8153 -114.7847 25° Northeast 307 353 27,000  Level Los Angeles Center
04:08PM 35.8908 -114.7408 25° Northeast 303 349 27,000  Level Los Angeles Center
04:09PM 35.9664 -114.6964 25° Northeast 301 346 27,000  Level Los Angeles Center
04:10PM 36.0425 -114.6511 26° Northeast 303 349 27,000  Level Los Angeles Center
04:11PM 36.1197 -114.6072 25° Northeast 304 350 27,000  Level Los Angeles Center
04:12PM 36.2111 -114.5544 25° Northeast 304 350 27,000  Level Los Angeles Center
04:13PM 36.2864 -114.5097 26° Northeast 301 346 27,000  Level Los Angeles Center
04:14PM 36.3619 -114.4656 25° Northeast 302 348 27,000  Level Los Angeles Center
04:15PM 36.4369 -114.4211 25° Northeast 300 345 27,000  Level Los Angeles Center
04:16PM 36.5122 -114.3778 25° Northeast 300 345 27,000  Level Los Angeles Center
04:17PM 36.5872 -114.3331 26° Northeast 299 344 27,000  Level Los Angeles Center
04:18PM 36.6783 -114.2800 25° Northeast 301 346 27,000  Level Los Angeles Center
04:19PM 36.7525 -114.2356 26° Northeast 298 343 27,000  Level Los Angeles Center
04:20PM 36.8281 -114.1919 25° Northeast 299 344 27,000  Level Los Angeles Center
04:21PM 36.9019 -114.1483 25° Northeast 295 339 27,000  Level Los Angeles Center
04:22PM 36.9775 -114.1050 25° Northeast 297 342 27,000  Level Los Angeles Center
04:23PM 37.0675 -114.0514 25° Northeast 298 343 27,000  Level Los Angeles Center
04:24PM 37.1414 -114.0069 26° Northeast 295 339 27,000  Level Los Angeles Center
04:25PM 37.2156 -113.9633 25° Northeast 294 338 27,000  Level Los Angeles Center
04:26PM 37.2892 -113.9194 25° Northeast 292 336 27,000  Level Los Angeles Center
04:27PM 37.3597 -113.8778 25° Northeast 290 334 27,000  Level Los Angeles Center
04:28PM 37.4461 -113.8253 26° Northeast 287 330 27,000  Level Los Angeles Center
04:30PM 37.5181 -113.7808 26° Northeast 287 330 27,000  Level Los Angeles Center
04:31PM 37.5914 -113.7386 25° Northeast 288 331 27,000  Level Los Angeles Center
04:32PM 37.6656 -113.6931 26° Northeast 292 336 27,000  Level Los Angeles Center
04:32PM 37.7083 -113.6664 26° Northeast 291 335 27,000  Level Salt Lake Center
04:33PM 37.7817 -113.6225 25° Northeast 291 335 27,000  Level Salt Lake Center
04:34PM 37.8544 -113.5786 25° Northeast 290 334 27,000  Level Salt Lake Center
04:35PM 37.9278 -113.5328 26° Northeast 291 335 27,000  Level Salt Lake Center
04:36PM 38.0011 -113.4881 26° Northeast 291 335 27,000  Level Salt Lake Center
04:37PM 38.0742 -113.4431 26° Northeast 291 335 27,000  Level Salt Lake Center
04:38PM 38.1469 -113.3981 26° Northeast 291 335 27,000  Level Salt Lake Center
04:39PM 38.2211 -113.3536 25° Northeast 292 336 27,000  Level Salt Lake Center
04:40PM 38.3086 -113.2994 26° Northeast 291 335 27,000  Level Salt Lake Center
04:41PM 38.3811 -113.2542 26° Northeast 291 335 27,000  Level Salt Lake Center
04:42PM 38.4539 -113.2089 26° Northeast 291 335 27,000  Level Salt Lake Center
04:43PM 38.5250 -113.1636 26° Northeast 286 329 27,000  Level Salt Lake Center
04:44PM 38.5956 -113.1181 27° Northeast 284 327 27,000  Level Salt Lake Center
04:45PM 38.6675 -113.0742 25° Northeast 286 329 27,000  Level Salt Lake Center
04:46PM 38.7394 -113.0297 26° Northeast 286 329 27,000  Level Salt Lake Center
04:48PM 38.8100 -112.9839 27° Northeast 284 327 27,000  Level Salt Lake Center
04:49PM 38.8972 -112.9303 26° Northeast 287 330 27,000  Level Salt Lake Center
04:50PM 38.9694 -112.8833 27° Northeast 289 333 27,000  Level Salt Lake Center
04:51PM 39.0425 -112.8375 26° Northeast 291 335 27,000  Level Salt Lake Center
04:52PM 39.1147 -112.7928 26° Northeast 291 335 27,000  Level Salt Lake Center
04:54PM 39.2589 -112.7008 26° Northeast 289 333 27,000  Level Salt Lake Center
04:55PM 39.3319 -112.6542 26° Northeast 290 334 27,000  Level Salt Lake Center
04:56PM 39.4061 -112.6083 26° Northeast 293 337 27,000  Level Salt Lake Center
04:57PM 39.4917 -112.5533 26° Northeast 286 329 27,000  Level Salt Lake Center
04:58PM 39.5636 -112.5072 26° Northeast 288 331 27,000  Level Salt Lake Center
04:59PM 39.6353 -112.4600 27° Northeast 289 333 27,000  Level Salt Lake Center
05:00PM 39.7061 -112.4150 26° Northeast 286 329 27,000  Level Salt Lake Center
05:01PM 39.7775 -112.3692 26° Northeast 286 329 27,000  Level Salt Lake Center
05:02PM 39.8475 -112.3225 27° Northeast 283 326 27,000  Level Salt Lake Center
05:03PM 39.9178 -112.2769 26° Northeast 283 326 27,000  Level Salt Lake Center
05:04PM 40.0028 -112.2219 26° Northeast 283 326 27,000  Level Salt Lake Center
05:05PM 40.0736 -112.1756 27° Northeast 284 327 27,000  Level Salt Lake Center
05:06PM 40.1436 -112.1283 27° Northeast 285 328 27,000  Level Salt Lake Center
05:07PM 40.2136 -112.0836 26° Northeast 282 325 27,000  Level Salt Lake Center
05:08PM 40.2844 -112.0372 27° Northeast 284 327 27,000  Level Salt Lake Center
05:09PM 40.3556 -111.9911 26° Northeast 287 330 27,000  Level Salt Lake Center
05:10PM 40.4419 -111.9333 27° Northeast 293 337 27,000  Level Salt Lake Center
05:11PM 40.5133 -111.8853 27° Northeast 290 334 27,000  Level Salt Lake Center
05:12PM 40.5844 -111.8372 27° Northeast 288 331 27,000  Level Salt Lake Center
05:13PM 40.6553 -111.7903 27° Northeast 285 328 27,000  Level Salt Lake Center
05:14PM 40.7253 -111.7442 27° Northeast 283 326 27,000  Level Salt Lake Center
05:15PM 40.7958 -111.6969 27° Northeast 286 329 27,000  Level Salt Lake Center
05:16PM 40.8792 -111.6419 27° Northeast 282 325 27,000  Level Salt Lake Center
05:17PM 40.9483 -111.5944 27° Northeast 284 327 27,000  Level Salt Lake Center
05:18PM 41.0183 -111.5472 27° Northeast 286 329 27,000  Level Salt Lake Center
05:19PM 41.0878 -111.5003 27° Northeast 283 326 27,000  Level Salt Lake Center
05:20PM 41.1572 -111.4522 28° Northeast 284 327 27,000  Level Salt Lake Center
05:21PM 41.2264 -111.4061 27° Northeast 281 323 27,000  Level Salt Lake Center
05:22PM 41.3089 -111.3497 27° Northeast 279 321 27,000  Level Salt Lake Center
05:24PM 41.3758 -111.3025 28° Northeast 274 315 27,000  Level Salt Lake Center
05:25PM 41.4444 -111.2564 27° Northeast 275 316 27,000  Level Salt Lake Center
05:26PM 41.5150 -111.2075 27° Northeast 284 327 27,000  Level Salt Lake Center
05:27PM 41.5831 -111.1611 27° Northeast 278 320 27,000  Level Salt Lake Center
05:28PM 41.6511 -111.1136 28° Northeast 276 318 27,000  Level Salt Lake Center
05:29PM 41.7333 -111.0569 27° Northeast 277 319 27,000  Level Salt Lake Center
05:30PM 41.8022 -111.0103 27° Northeast 277 319 27,000  Level Salt Lake Center
05:31PM 41.8700 -110.9622 28° Northeast 276 318 27,000  Level Salt Lake Center
05:32PM 41.9444 -110.9100 28° Northeast 277 319 27,000  Level Salt Lake Center
05:33PM 42.0092 -110.8653 27° Northeast 276 318 27,000  Level Salt Lake Center
05:34PM 42.0864 -110.8108 28° Northeast 278 320 27,000  Level Salt Lake Center
05:35PM 42.1517 -110.7653 27° Northeast 276 318 27,000  Level Salt Lake Center
05:36PM 42.2183 -110.7200 27° Northeast 279 321 27,000  Level Salt Lake Center
05:37PM 42.2950 -110.6636 29° Northeast 280 322 27,000  Level Salt Lake Center
05:38PM 42.3611 -110.6183 27° Northeast 278 320 27,000  Level Salt Lake Center
05:39PM 42.4367 -110.5650 28° Northeast 275 316 27,000  Level Salt Lake Center
05:40PM 42.5017 -110.5192 27° Northeast 276 318 27,000  Level Salt Lake Center
05:41PM 42.5767 -110.4661 28° Northeast 272 313 27,000  Level Salt Lake Center
05:42PM 42.6397 -110.4192 29° Northeast 268 308 27,000  Level Salt Lake Center
05:43PM 42.7142 -110.3669 27° Northeast 270 311 27,000  Level Salt Lake Center
05:44PM 42.7800 -110.3200 28° Northeast 270 311 27,000  Level Salt Lake Center
05:45PM 42.8444 -110.2736 28° Northeast 273 314 27,000  Level Salt Lake Center
05:46PM 42.9186 -110.2200 28° Northeast 272 313 27,000  Level Salt Lake Center
05:47PM 42.9819 -110.1739 28° Northeast 271 312 27,000  Level Salt Lake Center
05:48PM 43.0567 -110.1194 28° Northeast 272 313 27,000  Level Salt Lake Center
05:49PM 43.1208 -110.0733 28° Northeast 273 314 27,000  Level Salt Lake Center
05:50PM 43.1942 -110.0200 28° Northeast 270 311 27,000  Level Salt Lake Center
05:51PM 43.2556 -109.9736 29° Northeast 270 311 27,000  Level Salt Lake Center
05:52PM 43.3328 -109.9164 28° Northeast 280 322 27,000  Level Salt Lake Center
05:53PM 43.3964 -109.8700 28° Northeast 272 313 27,000  Level Salt Lake Center
05:54PM 43.4631 -109.8236 27° Northeast 264 304 27,000  Level Salt Lake Center
05:55PM 43.5350 -109.7681 29° Northeast 272 313 27,000  Level Salt Lake Center
05:57PM 43.5986 -109.7214 28° Northeast 272 313 27,000  Level Salt Lake Center
05:58PM 43.6728 -109.6650 29° Northeast 272 313 27,000  Level Salt Lake Center
05:59PM 43.7358 -109.6181 28° Northeast 271 312 27,000  Level Salt Lake Center
06:00PM 43.8103 -109.5603 29° Northeast 273 314 27,000  Level Salt Lake Center
06:01PM 43.8747 -109.5122 28° Northeast 274 315 27,000  Level Salt Lake Center
06:02PM 43.9425 -109.4628 28° Northeast 274 315 27,000 -780 Level Salt Lake Center
06:03PM 44.0094 -109.4125 28° Northeast 273 314 25,500 -1,980 Descending Salt Lake Center
06:04PM 44.0769 -109.3617 28° Northeast 276 318 23,000 -2,340 Descending Salt Lake Center
06:05PM 44.1431 -109.3122 28° Northeast 271 312 20,700 -2,520 Descending Salt Lake Center
06:06PM 44.2206 -109.2531 29° Northeast 268 308 17,900 -2,460 Descending Salt Lake Center
06:07PM 44.2775 -109.2103 28° Northeast 245 282 15,700 -2,220 Descending Salt Lake Center